createdAt,value
2023-01-30T00:00:02.845Z,42.90
2023-01-30T00:02:33.998Z,35.40
2023-01-30T00:05:05.593Z,61.10
2023-01-30T00:10:06.971Z,25.50
2023-01-30T00:15:09.227Z,15.40
2023-01-30T00:17:40.538Z,21.10
2023-01-30T00:20:15.691Z,23.70
2023-01-30T00:23:00.165Z,23.80
2023-01-30T00:25:32.625Z,29.80
2023-01-30T00:28:04.543Z,35.50
2023-01-30T00:30:35.521Z,23.20
2023-01-30T00:33:06.757Z,22.20
2023-01-30T00:35:37.981Z,36.90
2023-01-30T00:38:09.014Z,56.30
2023-01-30T00:40:40.312Z,37.20
2023-01-30T00:43:31.235Z,37.90
2023-01-30T00:46:21.560Z,35.50
2023-01-30T00:48:52.741Z,24.50
2023-01-30T00:51:23.804Z,30.50
2023-01-30T00:53:54.819Z,46.50
2023-01-30T00:56:26.204Z,23.30
2023-01-30T00:58:57.228Z,43.80
2023-01-30T01:01:28.245Z,38.90
2023-01-30T01:03:59.288Z,31.40
2023-01-30T01:06:30.371Z,32.70
2023-01-30T01:09:01.413Z,28.20
2023-01-30T01:11:32.990Z,31.90
2023-01-30T01:14:05.361Z,37.10
2023-01-30T01:16:37.580Z,33.20
2023-01-30T01:19:08.679Z,28.20
2023-01-30T01:21:39.766Z,31.80
2023-01-30T01:24:15.266Z,20.90
2023-01-30T01:26:46.971Z,21.50
2023-01-30T01:29:19.408Z,28.00
2023-01-30T01:31:50.669Z,80.20
2023-01-30T01:34:21.732Z,48.70
2023-01-30T01:36:54.179Z,68.60
2023-01-30T01:39:46.683Z,45.90
2023-01-30T01:42:18.024Z,34.70
2023-01-30T01:45:14.885Z,30.60
2023-01-30T01:48:00.329Z,31.10
2023-01-30T01:50:40.454Z,36.80
2023-01-30T01:53:14.017Z,33.60
2023-01-30T01:55:49.433Z,41.80
2023-01-30T01:58:25.999Z,33.40
2023-01-30T02:01:00.444Z,30.50
2023-01-30T02:03:35.205Z,26.70
2023-01-30T02:06:08.373Z,45.30
2023-01-30T02:08:42.150Z,32.90
2023-01-30T02:11:18.824Z,59.60
2023-01-30T02:13:51.330Z,26.20
2023-01-30T02:16:22.671Z,30.00
2023-01-30T02:18:54.052Z,33.80
2023-01-30T02:22:04.592Z,32.70
2023-01-30T02:24:54.114Z,23.30
2023-01-30T02:27:46.950Z,22.60
2023-01-30T02:30:53.464Z,17.80
2023-01-30T02:33:34.436Z,20.20
2023-01-30T02:36:14.795Z,18.80
2023-01-30T02:38:56.398Z,23.70
2023-01-30T02:41:37.845Z,21.80
2023-01-30T02:44:26.534Z,13.90
2023-01-30T02:47:03.853Z,18.60
2023-01-30T02:49:39.668Z,18.50
2023-01-30T02:52:13.145Z,17.70
2023-01-30T02:54:44.189Z,17.40
2023-01-30T02:57:23.374Z,16.30
2023-01-30T02:59:58.087Z,19.20
2023-01-30T03:03:07.089Z,17.70
2023-01-30T03:05:52.914Z,21.10
2023-01-30T03:08:33.181Z,21.70
2023-01-30T03:11:07.332Z,17.50
2023-01-30T03:13:49.506Z,16.40
2023-01-30T03:16:25.460Z,17.20
2023-01-30T03:18:56.596Z,20.40
2023-01-30T03:21:27.782Z,20.40
2023-01-30T03:23:58.698Z,22.70
2023-01-30T03:26:34.158Z,23.20
2023-01-30T03:29:05.781Z,16.00
2023-01-30T03:31:37.202Z,23.80
2023-01-30T03:34:08.267Z,20.30
2023-01-30T03:36:39.504Z,21.70
2023-01-30T03:39:10.463Z,17.10
2023-01-30T03:41:41.709Z,19.90
2023-01-30T03:44:12.966Z,19.20
2023-01-30T03:46:44.277Z,21.90
2023-01-30T03:49:15.661Z,19.00
2023-01-30T03:51:46.903Z,20.30
2023-01-30T03:54:17.916Z,20.70
2023-01-30T03:56:48.936Z,15.40
2023-01-30T03:59:19.967Z,19.50
2023-01-30T04:01:51.075Z,16.60
2023-01-30T04:04:22.625Z,14.60
2023-01-30T04:06:53.788Z,18.70
2023-01-30T04:09:24.823Z,16.50
2023-01-30T04:11:55.818Z,21.00
2023-01-30T04:14:27.001Z,17.50
2023-01-30T04:16:57.932Z,18.10
2023-01-30T04:19:29.279Z,20.40
2023-01-30T04:22:00.329Z,17.90
2023-01-30T04:24:31.276Z,16.60
2023-01-30T04:27:02.263Z,15.80
2023-01-30T04:29:33.272Z,34.60
2023-01-30T04:32:04.397Z,30.20
2023-01-30T04:34:35.441Z,20.90
2023-01-30T04:37:06.540Z,18.70
2023-01-30T04:39:37.586Z,17.80
2023-01-30T04:42:08.784Z,15.50
2023-01-30T04:44:39.967Z,13.40
2023-01-30T04:47:10.977Z,18.60
2023-01-30T04:49:41.893Z,21.80
2023-01-30T04:52:12.812Z,32.10
2023-01-30T04:54:43.886Z,20.20
2023-01-30T04:57:14.845Z,18.70
2023-01-30T04:59:45.888Z,17.20
2023-01-30T05:02:17.056Z,23.70
2023-01-30T05:04:49.882Z,21.20
2023-01-30T05:07:28.731Z,20.00
2023-01-30T05:09:59.870Z,23.60
2023-01-30T05:12:31.822Z,18.00
2023-01-30T05:17:32.589Z,25.20
2023-01-30T05:20:03.755Z,22.10
2023-01-30T05:22:34.771Z,22.10
2023-01-30T05:25:06.406Z,24.30
2023-01-30T05:27:37.290Z,24.60
2023-01-30T05:30:10.338Z,20.90
2023-01-30T05:32:41.321Z,14.20
2023-01-30T05:35:12.827Z,16.70
2023-01-30T05:37:43.750Z,15.80
2023-01-30T05:40:16.445Z,13.60
2023-01-30T05:42:47.617Z,14.80
2023-01-30T05:45:19.037Z,16.50
2023-01-30T05:50:32.479Z,20.10
2023-01-30T05:53:03.727Z,19.50
2023-01-30T05:55:34.704Z,13.80
2023-01-30T05:58:05.671Z,15.60
2023-01-30T06:00:36.819Z,12.00
2023-01-30T06:03:08.022Z,13.00
2023-01-30T06:05:41.499Z,15.70
2023-01-30T06:08:12.612Z,18.70
2023-01-30T06:10:43.903Z,17.50
2023-01-30T06:13:14.935Z,16.70
2023-01-30T06:15:46.052Z,17.00
2023-01-30T06:18:17.129Z,18.30
2023-01-30T06:20:51.105Z,11.10
2023-01-30T06:23:23.579Z,20.30
2023-01-30T06:25:56.712Z,13.30
2023-01-30T06:28:28.875Z,13.70
2023-01-30T06:31:00.000Z,13.20
2023-01-30T06:33:30.869Z,17.80
2023-01-30T06:36:01.682Z,15.20
2023-01-30T06:38:32.767Z,14.00
2023-01-30T06:41:04.028Z,17.90
2023-01-30T06:43:34.956Z,16.40
2023-01-30T06:46:06.694Z,14.80
2023-01-30T06:48:38.114Z,13.80
2023-01-30T06:51:09.246Z,19.90
2023-01-30T06:53:40.163Z,16.80
2023-01-30T06:56:11.707Z,14.70
2023-01-30T06:58:43.124Z,19.80
2023-01-30T07:01:14.924Z,19.80
2023-01-30T07:03:46.005Z,18.90
2023-01-30T07:06:17.172Z,21.90
2023-01-30T07:08:48.154Z,21.70
2023-01-30T07:11:19.602Z,20.20
2023-01-30T07:16:20.398Z,13.40
2023-01-30T07:18:51.385Z,19.60
2023-01-30T07:21:22.493Z,15.00
2023-01-30T07:23:53.854Z,15.40
2023-01-30T07:26:25.634Z,15.30
2023-01-30T07:28:56.732Z,17.10
2023-01-30T07:31:28.103Z,16.90
2023-01-30T07:33:59.065Z,16.90
2023-01-30T07:36:29.915Z,20.10
2023-01-30T07:39:01.507Z,17.70
2023-01-30T07:41:32.457Z,16.80
2023-01-30T07:44:03.736Z,18.50
2023-01-30T07:46:36.014Z,18.90
2023-01-30T07:49:08.264Z,24.10
2023-01-30T07:51:41.828Z,25.40
2023-01-30T07:54:13.921Z,33.00
2023-01-30T07:56:45.106Z,19.80
2023-01-30T07:59:16.353Z,18.90
2023-01-30T08:01:48.787Z,17.70
2023-01-30T08:04:19.981Z,18.20
2023-01-30T08:06:51.185Z,17.30
2023-01-30T08:09:22.217Z,15.20
2023-01-30T08:11:53.583Z,14.50
2023-01-30T08:14:26.548Z,15.00
2023-01-30T08:16:59.031Z,16.80
2023-01-30T08:19:30.288Z,15.90
2023-01-30T08:22:01.802Z,18.80
2023-01-30T08:27:02.392Z,20.40
2023-01-30T08:29:33.610Z,14.70
2023-01-30T08:32:04.874Z,20.30
2023-01-30T08:37:07.370Z,21.10
2023-01-30T08:39:38.360Z,24.80
2023-01-30T08:42:09.535Z,16.10
2023-01-30T08:44:40.863Z,13.90
2023-01-30T08:49:41.476Z,21.60
2023-01-30T08:52:12.706Z,26.80
2023-01-30T08:54:43.848Z,23.90
2023-01-30T08:57:16.527Z,23.00
2023-01-30T08:59:47.872Z,23.70
2023-01-30T09:04:48.997Z,18.90
2023-01-30T09:07:20.222Z,23.00
2023-01-30T09:09:51.331Z,18.90
2023-01-30T09:12:22.441Z,21.70
2023-01-30T09:14:55.741Z,19.20
2023-01-30T09:17:26.888Z,20.20
2023-01-30T09:19:57.959Z,24.50
2023-01-30T09:22:28.991Z,23.20
2023-01-30T09:25:00.198Z,19.00
2023-01-30T09:27:31.372Z,22.40
2023-01-30T09:30:02.661Z,26.70
2023-01-30T09:32:34.701Z,25.50
2023-01-30T09:35:06.326Z,24.30
2023-01-30T09:37:37.815Z,22.30
2023-01-30T09:40:15.099Z,19.90
2023-01-30T09:43:00.871Z,25.30
2023-01-30T09:45:46.877Z,34.10
2023-01-30T09:48:22.568Z,65.50
2023-01-30T09:51:29.522Z,42.70
2023-01-30T09:54:14.675Z,48.30
2023-01-30T09:56:46.504Z,54.80
2023-01-30T09:59:25.009Z,32.40
2023-01-30T10:02:06.918Z,31.60
2023-01-30T10:04:51.749Z,35.80
2023-01-30T10:07:40.652Z,36.60
2023-01-30T10:10:22.264Z,29.10
2023-01-30T10:13:04.362Z,29.10
2023-01-30T10:15:53.507Z,22.10
2023-01-30T10:18:49.063Z,16.80
2023-01-30T10:21:30.532Z,24.60
2023-01-30T10:24:24.832Z,21.90
2023-01-30T10:26:56.794Z,11.90
2023-01-30T10:29:32.603Z,12.00
2023-01-30T10:32:11.364Z,14.10
2023-01-30T10:34:45.896Z,21.40
2023-01-30T10:37:22.267Z,23.00
2023-01-30T10:40:03.402Z,33.40
2023-01-30T10:42:42.652Z,26.70
2023-01-30T10:45:17.523Z,24.00
2023-01-30T10:48:00.811Z,21.50
2023-01-30T10:50:45.178Z,20.30
2023-01-30T10:53:22.768Z,26.30
2023-01-30T10:56:01.914Z,15.90
2023-01-30T10:58:42.902Z,19.00
2023-01-30T11:01:22.468Z,18.00
2023-01-30T11:03:58.178Z,14.50
2023-01-30T11:06:29.329Z,23.40
2023-01-30T11:09:00.550Z,23.50
2023-01-30T11:11:37.030Z,12.10
2023-01-30T11:14:09.323Z,14.70
2023-01-30T11:16:48.180Z,32.20
2023-01-30T11:19:23.866Z,25.40
2023-01-30T11:21:57.394Z,18.10
2023-01-30T11:24:40.269Z,23.00
2023-01-30T11:27:18.695Z,26.70
2023-01-30T11:29:52.456Z,11.80
2023-01-30T11:32:28.707Z,10.50
2023-01-30T11:35:18.570Z,9.70
2023-01-30T11:37:51.513Z,6.90
2023-01-30T11:40:29.104Z,5.80
2023-01-30T11:43:06.691Z,5.80
2023-01-30T11:45:43.153Z,8.00
2023-01-30T11:49:01.271Z,7.60
2023-01-30T11:51:12.635Z,7.40
2023-01-30T11:53:48.336Z,12.80
2023-01-30T11:56:22.503Z,18.20
2023-01-30T11:58:59.321Z,9.60
2023-01-30T12:01:33.246Z,7.50
2023-01-30T12:04:10.491Z,7.60
2023-01-30T12:06:43.443Z,6.70
2023-01-30T12:12:32.728Z,8.50
2023-01-30T12:15:24.410Z,7.30
2023-01-30T12:18:02.486Z,6.90
2023-01-30T12:20:48.066Z,5.80
2023-01-30T12:23:28.173Z,5.10
2023-01-30T12:26:06.600Z,6.70
2023-01-30T12:28:45.206Z,6.70
2023-01-30T12:31:21.130Z,5.90
2023-01-30T12:33:54.797Z,5.60
2023-01-30T12:36:42.694Z,6.50
2023-01-30T12:39:37.946Z,6.10
2023-01-30T12:42:31.238Z,17.10
2023-01-30T12:45:19.668Z,10.20
2023-01-30T12:48:07.602Z,15.30
2023-01-30T12:50:54.635Z,17.80
2023-01-30T12:53:33.879Z,10.80
2023-01-30T12:56:24.940Z,8.80
2023-01-30T12:59:02.602Z,10.40
2023-01-30T13:04:15.232Z,4.80
2023-01-30T13:07:06.904Z,7.70
2023-01-30T13:09:51.303Z,9.10
2023-01-30T13:12:30.731Z,25.10
2023-01-30T13:15:12.215Z,20.50
2023-01-30T13:17:53.774Z,67.40
2023-01-30T13:20:41.469Z,19.70
2023-01-30T13:23:18.368Z,11.80
2023-01-30T13:26:01.082Z,13.40
2023-01-30T13:28:38.466Z,15.10
2023-01-30T13:31:14.919Z,14.30
2023-01-30T13:33:49.000Z,8.70
2023-01-30T13:36:23.216Z,8.50
2023-01-30T13:39:02.434Z,10.30
2023-01-30T13:41:39.343Z,19.10
2023-01-30T13:44:19.469Z,21.30
2023-01-30T13:46:52.318Z,9.20
2023-01-30T13:49:32.115Z,9.30
2023-01-30T13:52:09.908Z,8.40
2023-01-30T13:54:53.846Z,9.70
2023-01-30T13:57:35.578Z,4.90
2023-01-30T14:00:28.241Z,8.90
2023-01-30T14:03:39.285Z,11.20
2023-01-30T14:06:32.436Z,6.30
2023-01-30T14:09:06.855Z,6.30
2023-01-30T14:11:45.682Z,6.20
2023-01-30T14:14:30.941Z,8.00
2023-01-30T14:17:12.762Z,4.50
2023-01-30T14:19:47.256Z,7.40
2023-01-30T14:22:25.366Z,6.30
2023-01-30T14:25:45.284Z,4.80
2023-01-30T14:28:52.675Z,7.60
2023-01-30T14:31:50.460Z,5.80
2023-01-30T14:35:03.706Z,9.30
2023-01-30T14:38:05.937Z,55.90
2023-01-30T14:41:10.736Z,29.70
2023-01-30T14:43:53.018Z,10.90
2023-01-30T14:46:54.499Z,6.10
2023-01-30T14:49:36.143Z,7.90
2023-01-30T14:52:24.863Z,18.30
2023-01-30T14:54:56.612Z,10.80
2023-01-30T14:57:32.860Z,9.40
2023-01-30T15:00:18.601Z,13.60
2023-01-30T15:02:57.163Z,8.70
2023-01-30T15:05:43.378Z,5.30
2023-01-30T15:08:20.545Z,6.60
2023-01-30T15:11:09.773Z,4.30
2023-01-30T15:14:07.657Z,5.90
2023-01-30T15:17:06.748Z,12.10
2023-01-30T15:20:01.866Z,9.70
2023-01-30T15:22:44.777Z,9.40
2023-01-30T15:25:30.854Z,7.90
2023-01-30T15:28:12.139Z,5.10
2023-01-30T15:31:01.697Z,4.00
2023-01-30T15:33:32.983Z,5.30
2023-01-30T15:36:21.370Z,7.40
2023-01-30T15:38:59.401Z,11.10
2023-01-30T15:41:33.475Z,6.50
2023-01-30T15:44:20.360Z,11.40
2023-01-30T15:47:02.107Z,15.00
2023-01-30T15:49:49.556Z,16.50
2023-01-30T15:52:24.202Z,10.70
2023-01-30T15:54:58.136Z,10.40
2023-01-30T15:57:34.969Z,12.70
2023-01-30T16:00:11.844Z,11.40
2023-01-30T16:02:45.312Z,20.70
2023-01-30T16:05:24.858Z,9.70
2023-01-30T16:07:58.975Z,9.00
2023-01-30T16:10:31.516Z,7.50
2023-01-30T16:13:07.362Z,5.90
2023-01-30T16:15:43.679Z,8.40
2023-01-30T16:18:26.503Z,6.50
2023-01-30T16:21:02.473Z,14.20
2023-01-30T16:23:38.319Z,8.70
2023-01-30T16:26:16.264Z,6.00
2023-01-30T16:28:47.636Z,8.10
2023-01-30T16:31:20.326Z,6.50
2023-01-30T16:33:54.383Z,6.00
2023-01-30T16:36:39.491Z,9.40
2023-01-30T16:39:31.388Z,4.60
2023-01-30T16:42:03.431Z,7.00
2023-01-30T16:44:35.168Z,5.10
2023-01-30T16:47:08.490Z,5.10
2023-01-30T16:49:48.323Z,5.80
2023-01-30T16:52:23.919Z,10.60
2023-01-30T16:54:58.374Z,5.30
2023-01-30T16:57:36.948Z,6.10
2023-01-30T17:00:25.134Z,7.90
2023-01-30T17:02:59.249Z,5.20
2023-01-30T17:05:38.014Z,3.20
2023-01-30T17:08:49.362Z,3.20
2023-01-30T17:11:35.362Z,3.70
2023-01-30T17:14:22.688Z,4.30
2023-01-30T17:17:05.014Z,6.50
2023-01-30T17:19:36.286Z,5.00
2023-01-30T17:27:08.887Z,6.40
2023-01-30T17:29:43.493Z,7.70
2023-01-30T17:32:17.230Z,7.30
2023-01-30T17:34:48.774Z,7.10
2023-01-30T17:37:23.224Z,7.90
2023-01-30T17:39:54.331Z,4.40
2023-01-30T17:42:25.886Z,4.60
2023-01-30T17:45:00.010Z,4.60
2023-01-30T17:47:31.442Z,3.90
2023-01-30T17:52:33.707Z,4.30
2023-01-30T17:55:05.462Z,8.90
2023-01-30T17:57:36.435Z,5.00
2023-01-30T18:02:38.297Z,6.00
2023-01-30T18:05:10.899Z,3.40
2023-01-30T18:07:42.585Z,5.00
2023-01-30T18:10:20.333Z,4.60
2023-01-30T18:12:51.498Z,7.90
2023-01-30T18:15:22.598Z,4.40
2023-01-30T18:17:56.414Z,8.30
2023-01-30T18:20:27.445Z,4.60
2023-01-30T18:22:58.534Z,2.70
2023-01-30T18:25:29.769Z,3.10
2023-01-30T18:28:02.089Z,4.10
2023-01-30T18:30:33.369Z,2.70
2023-01-30T18:33:04.551Z,8.40
2023-01-30T18:35:35.791Z,23.50
2023-01-30T18:40:38.473Z,54.60
2023-01-30T18:43:09.677Z,8.70
2023-01-30T18:45:40.644Z,4.70
2023-01-30T18:48:11.741Z,3.60
2023-01-30T18:50:42.901Z,4.60
2023-01-30T18:53:13.859Z,3.20
2023-01-30T18:55:52.472Z,4.10
2023-01-30T18:58:23.648Z,4.10
2023-01-30T19:00:54.781Z,6.70
2023-01-30T19:03:25.826Z,9.20
2023-01-30T19:05:57.210Z,5.60
2023-01-30T19:08:28.335Z,4.00
2023-01-30T19:16:26.810Z,2.40
2023-01-30T19:18:59.220Z,1.70
2023-01-30T19:21:31.238Z,7.30
2023-01-30T19:24:04.946Z,3.10
2023-01-30T19:26:36.066Z,2.20
2023-01-30T19:29:07.392Z,2.90
2023-01-30T19:31:39.027Z,11.80
2023-01-30T19:34:11.818Z,10.40
2023-01-30T19:36:42.776Z,8.00
2023-01-30T19:39:13.892Z,5.00
2023-01-30T19:41:44.943Z,4.30
2023-01-30T19:44:15.857Z,1.70
2023-01-30T19:46:47.591Z,5.70
2023-01-30T19:49:19.116Z,3.60
2023-01-30T19:51:50.258Z,4.00
2023-01-30T19:54:21.356Z,4.00
2023-01-30T19:56:52.481Z,4.20
2023-01-30T19:59:23.477Z,4.60
2023-01-30T20:01:54.707Z,4.30
2023-01-30T20:04:25.988Z,1.30
2023-01-30T20:06:57.029Z,1.70
2023-01-30T20:09:28.049Z,1.30
2023-01-30T20:11:59.146Z,3.30
2023-01-30T20:14:30.871Z,1.40
2023-01-30T20:17:01.850Z,5.60
2023-01-30T20:19:32.970Z,4.20
2023-01-30T20:22:08.235Z,3.30
2023-01-30T20:24:40.153Z,17.70
2023-01-30T20:27:11.068Z,11.00
2023-01-30T20:29:42.265Z,23.50
2023-01-30T20:32:13.261Z,3.60
2023-01-30T20:34:44.660Z,3.90
2023-01-30T20:37:15.977Z,30.30
2023-01-30T20:39:47.841Z,65.50
2023-01-30T20:42:19.856Z,7.60
2023-01-30T20:44:50.920Z,3.10
2023-01-30T20:47:21.880Z,4.90
2023-01-30T20:49:52.835Z,4.10
2023-01-30T20:52:24.025Z,6.80
2023-01-30T20:54:55.445Z,2.50
2023-01-30T20:59:56.084Z,2.90
2023-01-30T21:02:28.592Z,5.00
2023-01-30T21:04:59.552Z,5.20
2023-01-30T21:07:32.830Z,4.10
2023-01-30T21:10:03.892Z,4.90
2023-01-30T21:12:34.877Z,5.30
2023-01-30T21:15:06.440Z,3.50
2023-01-30T21:17:38.414Z,8.40
2023-01-30T21:20:11.287Z,7.90
2023-01-30T21:22:43.566Z,9.90
2023-01-30T21:25:14.988Z,4.80
2023-01-30T21:30:16.726Z,4.40
2023-01-30T21:32:47.911Z,3.80
2023-01-30T21:38:06.395Z,6.50
2023-01-30T21:40:55.113Z,5.80
2023-01-30T21:43:26.315Z,4.70
2023-01-30T21:46:01.077Z,10.30
2023-01-30T21:48:32.525Z,23.70
2023-01-30T21:51:11.867Z,7.00
2023-01-30T21:53:42.902Z,12.70
2023-01-30T21:56:13.926Z,6.60
2023-01-30T21:58:44.835Z,10.80
2023-01-30T22:01:16.916Z,8.00
2023-01-30T22:03:48.030Z,8.10
2023-01-30T22:08:49.909Z,9.20
2023-01-30T22:11:21.089Z,11.00
2023-01-30T22:13:52.804Z,7.30
2023-01-30T22:16:26.024Z,9.80
2023-01-30T22:18:58.976Z,13.30
2023-01-30T22:21:33.350Z,5.30
2023-01-30T22:24:07.470Z,9.60
2023-01-30T22:26:39.559Z,9.40
2023-01-30T22:29:10.717Z,11.10
2023-01-30T22:34:12.555Z,5.70
2023-01-30T22:36:43.796Z,9.40
2023-01-30T22:39:15.154Z,7.20
2023-01-30T22:41:46.452Z,11.10
2023-01-30T22:44:17.645Z,5.50
2023-01-30T22:46:51.368Z,5.30
2023-01-30T22:49:22.399Z,9.10
2023-01-30T22:51:53.490Z,6.50
2023-01-30T22:54:25.612Z,9.80
2023-01-30T22:56:56.553Z,5.70
2023-01-30T22:59:27.686Z,2.90
2023-01-30T23:01:58.797Z,4.50
2023-01-30T23:04:30.492Z,5.10
2023-01-30T23:07:01.931Z,9.70
2023-01-30T23:09:33.180Z,6.80
2023-01-30T23:12:21.847Z,9.90
2023-01-30T23:14:53.144Z,5.20
2023-01-30T23:17:41.580Z,8.30
2023-01-30T23:20:14.204Z,7.50
2023-01-30T23:22:45.274Z,6.10
2023-01-30T23:25:16.173Z,7.60
2023-01-30T23:27:47.447Z,8.10
2023-01-30T23:32:48.640Z,5.70
2023-01-30T23:35:20.139Z,8.40
2023-01-30T23:38:09.212Z,9.40
2023-01-30T23:40:40.154Z,4.30
2023-01-30T23:43:11.695Z,6.40
2023-01-30T23:45:42.700Z,5.00
2023-01-30T23:48:13.741Z,4.80
2023-01-30T23:50:44.675Z,6.90
2023-01-30T23:55:54.221Z,8.30
2023-01-30T23:58:25.329Z,4.60
